createdAt,value
2022-10-17T00:00:37.303Z,2.10
2022-10-17T00:03:05.039Z,2.30
2022-10-17T00:05:32.469Z,1.80
2022-10-17T00:07:59.934Z,2.03
2022-10-17T00:10:27.380Z,2.10
2022-10-17T00:12:54.818Z,2.07
2022-10-17T00:15:24.104Z,1.93
2022-10-17T00:17:51.526Z,2.10
2022-10-17T00:20:19.029Z,2.00
2022-10-17T00:22:46.606Z,2.67
2022-10-17T00:25:14.104Z,2.63
2022-10-17T00:27:42.184Z,2.47
2022-10-17T00:30:11.627Z,2.20
2022-10-17T00:32:41.004Z,2.37
2022-10-17T00:35:08.923Z,2.67
2022-10-17T00:37:36.635Z,2.37
2022-10-17T00:40:04.741Z,2.20
2022-10-17T00:42:32.227Z,1.90
2022-10-17T00:45:13.688Z,2.00
2022-10-17T00:47:42.930Z,2.43
2022-10-17T00:50:12.246Z,3.27
2022-10-17T00:52:39.907Z,2.80
2022-10-17T00:55:10.356Z,2.50
2022-10-17T00:57:37.830Z,3.00
2022-10-17T01:00:06.834Z,3.43
2022-10-17T01:02:35.439Z,2.87
2022-10-17T01:05:04.636Z,2.83
2022-10-17T01:07:34.928Z,2.73
2022-10-17T01:10:05.487Z,2.73
2022-10-17T01:12:36.518Z,2.50
2022-10-17T01:15:08.981Z,2.73
2022-10-17T01:17:41.746Z,2.67
2022-10-17T01:20:27.773Z,2.83
2022-10-17T01:23:00.493Z,2.73
2022-10-17T01:25:31.029Z,2.90
2022-10-17T01:28:06.674Z,2.83
2022-10-17T01:30:51.734Z,2.60
2022-10-17T01:33:23.363Z,2.70
2022-10-17T01:35:54.647Z,2.60
2022-10-17T01:38:24.487Z,2.70
2022-10-17T01:40:53.500Z,3.37
2022-10-17T01:43:24.752Z,2.60
2022-10-17T01:45:53.879Z,2.90
2022-10-17T01:48:23.833Z,3.03
2022-10-17T01:50:53.140Z,3.10
2022-10-17T01:53:22.668Z,3.40
2022-10-17T01:55:50.938Z,2.73
2022-10-17T01:58:21.631Z,2.97
2022-10-17T02:00:50.457Z,2.60
2022-10-17T02:03:18.975Z,2.90
2022-10-17T02:05:47.765Z,2.83
2022-10-17T02:08:15.291Z,3.10
2022-10-17T02:10:45.394Z,2.80
2022-10-17T02:13:18.458Z,2.67
2022-10-17T02:15:50.376Z,3.30
2022-10-17T02:18:25.367Z,3.03
2022-10-17T02:20:57.981Z,2.63
2022-10-17T02:23:28.583Z,2.70
2022-10-17T02:26:01.247Z,3.37
2022-10-17T02:28:31.954Z,2.70
2022-10-17T02:31:01.831Z,3.10
2022-10-17T02:33:30.823Z,3.00
2022-10-17T02:36:02.304Z,3.13
2022-10-17T02:38:30.116Z,2.73
2022-10-17T02:40:57.711Z,3.20
2022-10-17T02:43:25.569Z,3.30
2022-10-17T02:45:54.025Z,3.83
2022-10-17T02:48:24.971Z,2.97
2022-10-17T02:50:58.337Z,2.90
2022-10-17T02:53:31.155Z,2.50
2022-10-17T02:55:59.907Z,2.50
2022-10-17T02:58:29.081Z,2.73
2022-10-17T03:00:56.737Z,2.80
2022-10-17T03:03:27.719Z,3.27
2022-10-17T03:05:55.517Z,2.30
2022-10-17T03:08:23.474Z,2.50
2022-10-17T03:10:52.377Z,2.87
2022-10-17T03:13:19.837Z,2.90
2022-10-17T03:15:47.352Z,2.83
2022-10-17T03:18:14.729Z,2.60
2022-10-17T03:20:42.159Z,3.20
2022-10-17T03:23:09.777Z,3.00
2022-10-17T03:25:37.191Z,2.93
2022-10-17T03:28:06.697Z,2.90
2022-10-17T03:30:34.323Z,2.80
2022-10-17T03:33:01.936Z,2.47
2022-10-17T03:35:29.340Z,2.50
2022-10-17T03:37:56.848Z,3.03
2022-10-17T03:40:24.276Z,2.90
2022-10-17T03:42:51.884Z,2.87
2022-10-17T03:45:20.678Z,2.97
2022-10-17T03:47:48.123Z,3.10
2022-10-17T03:50:15.771Z,2.70
2022-10-17T03:52:43.185Z,2.83
2022-10-17T03:55:10.560Z,2.77
2022-10-17T03:57:40.181Z,3.17
2022-10-17T04:00:11.675Z,3.23
2022-10-17T04:02:40.551Z,2.90
2022-10-17T04:05:08.712Z,3.43
2022-10-17T04:07:37.225Z,2.87
2022-10-17T04:10:04.922Z,2.57
2022-10-17T04:12:32.511Z,2.73
2022-10-17T04:15:00.042Z,2.87
2022-10-17T04:17:27.476Z,2.67
2022-10-17T04:19:56.236Z,2.83
2022-10-17T04:22:23.678Z,2.63
2022-10-17T04:24:51.466Z,2.30
2022-10-17T04:27:18.919Z,2.50
2022-10-17T04:29:46.336Z,2.37
2022-10-17T04:32:14.098Z,2.60
2022-10-17T04:34:41.517Z,2.23
2022-10-17T04:37:10.313Z,2.37
2022-10-17T04:39:37.786Z,2.53
2022-10-17T04:42:05.197Z,2.67
2022-10-17T04:44:33.605Z,2.20
2022-10-17T04:47:01.042Z,2.50
2022-10-17T04:49:28.529Z,3.10
2022-10-17T04:51:56.031Z,2.73
2022-10-17T04:54:24.890Z,2.90
2022-10-17T04:56:52.247Z,2.80
2022-10-17T04:59:19.727Z,2.60
2022-10-17T05:01:47.120Z,3.13
2022-10-17T05:04:14.589Z,2.90
2022-10-17T05:06:42.238Z,2.83
2022-10-17T05:09:09.798Z,2.87
2022-10-17T05:11:39.005Z,2.33
2022-10-17T05:14:07.146Z,3.20
2022-10-17T05:16:37.042Z,2.63
2022-10-17T05:19:04.748Z,2.70
2022-10-17T05:24:06.487Z,2.47
2022-10-17T05:26:33.873Z,3.20
2022-10-17T05:29:03.128Z,3.00
2022-10-17T05:31:31.152Z,2.87
2022-10-17T05:34:01.387Z,3.30
2022-10-17T05:36:29.045Z,2.90
2022-10-17T05:38:56.506Z,3.10
2022-10-17T05:41:24.042Z,2.33
2022-10-17T05:43:51.527Z,2.63
2022-10-17T05:46:20.306Z,2.47
2022-10-17T05:48:47.784Z,3.00
2022-10-17T05:51:15.220Z,3.03
2022-10-17T05:53:42.846Z,2.63
2022-10-17T05:56:12.282Z,3.50
2022-10-17T05:58:50.903Z,3.50
2022-10-17T06:01:20.540Z,2.50
2022-10-17T06:03:47.998Z,2.90
2022-10-17T06:06:16.026Z,2.93
2022-10-17T06:08:43.519Z,2.83
2022-10-17T06:11:11.551Z,2.50
2022-10-17T06:13:39.120Z,3.33
2022-10-17T06:16:07.065Z,3.53
2022-10-17T06:18:35.853Z,4.20
2022-10-17T06:21:04.068Z,4.00
2022-10-17T06:23:31.562Z,3.90
2022-10-17T06:26:00.704Z,3.30
2022-10-17T06:28:28.246Z,3.60
2022-10-17T06:30:55.703Z,3.90
2022-10-17T06:33:23.329Z,3.17
2022-10-17T06:35:55.674Z,3.77
2022-10-17T06:38:23.780Z,3.50
2022-10-17T06:40:51.232Z,3.00
2022-10-17T06:43:18.786Z,4.13
2022-10-17T06:45:47.468Z,3.20
2022-10-17T06:48:15.583Z,3.60
2022-10-17T06:50:43.367Z,3.23
2022-10-17T06:53:12.170Z,3.33
2022-10-17T06:55:39.626Z,2.60
2022-10-17T06:58:09.156Z,2.80
2022-10-17T07:00:36.612Z,2.80
2022-10-17T07:03:04.078Z,3.10
2022-10-17T07:05:31.567Z,2.63
2022-10-17T07:07:58.991Z,3.07
2022-10-17T07:10:28.713Z,3.13
2022-10-17T07:12:56.133Z,3.43
2022-10-17T07:15:23.579Z,3.30
2022-10-17T07:17:51.460Z,2.63
2022-10-17T07:20:20.166Z,2.70
2022-10-17T07:22:48.745Z,2.83
2022-10-17T07:25:16.302Z,2.60
2022-10-17T07:27:45.097Z,2.40
2022-10-17T07:30:12.645Z,2.20
2022-10-17T07:32:40.224Z,2.97
2022-10-17T07:35:07.998Z,2.50
2022-10-17T07:37:35.508Z,3.03
2022-10-17T07:40:03.039Z,2.80
2022-10-17T07:42:30.562Z,2.57
2022-10-17T07:44:59.445Z,2.30
2022-10-17T07:47:27.579Z,2.33
2022-10-17T07:49:55.460Z,2.57
2022-10-17T07:52:22.924Z,2.63
2022-10-17T07:54:50.536Z,1.73
2022-10-17T07:57:18.020Z,1.80
2022-10-17T07:59:45.427Z,1.70
2022-10-17T08:02:17.526Z,1.88
2022-10-17T08:04:44.909Z,1.98
2022-10-17T08:07:21.773Z,1.95
2022-10-17T08:09:51.695Z,2.20
2022-10-17T08:12:19.200Z,1.70
2022-10-17T08:14:46.673Z,1.83
2022-10-17T08:17:15.450Z,1.77
2022-10-17T08:19:42.909Z,1.88
2022-10-17T08:22:10.303Z,1.60
2022-10-17T08:24:37.910Z,1.60
2022-10-17T08:27:11.331Z,1.88
2022-10-17T08:29:38.983Z,2.20
2022-10-17T08:32:09.076Z,1.58
2022-10-17T08:34:38.956Z,2.20
2022-10-17T08:37:06.653Z,2.03
2022-10-17T08:39:34.374Z,2.10
2022-10-17T08:42:07.046Z,1.88
2022-10-17T08:44:40.589Z,2.17
2022-10-17T08:47:12.057Z,2.08
2022-10-17T08:49:46.857Z,2.15
2022-10-17T08:52:17.651Z,1.83
2022-10-17T08:54:46.589Z,1.73
2022-10-17T08:57:15.372Z,2.20
2022-10-17T08:59:43.195Z,2.33
2022-10-17T09:02:23.273Z,1.70
2022-10-17T09:05:01.812Z,1.70
2022-10-17T09:07:33.472Z,3.90
2022-10-17T09:10:04.970Z,2.00
2022-10-17T09:12:34.726Z,2.28
2022-10-17T09:15:07.287Z,1.70
2022-10-17T09:17:38.922Z,1.92
2022-10-17T09:20:11.787Z,2.30
2022-10-17T09:22:42.440Z,1.88
2022-10-17T09:25:12.850Z,1.67
2022-10-17T09:27:42.522Z,1.80
2022-10-17T09:30:44.085Z,1.50
2022-10-17T09:33:23.373Z,1.40
2022-10-17T09:36:03.575Z,1.42
2022-10-17T09:38:35.843Z,1.08
2022-10-17T09:41:06.592Z,1.40
2022-10-17T09:43:40.498Z,1.45
2022-10-17T09:46:09.915Z,1.50
2022-10-17T09:48:39.408Z,1.55
2022-10-17T09:51:21.942Z,1.58
2022-10-17T09:53:54.926Z,1.60
2022-10-17T09:56:22.470Z,1.70
2022-10-17T09:58:52.766Z,1.52
2022-10-17T10:01:23.994Z,1.55
2022-10-17T10:04:06.877Z,1.45
2022-10-17T10:06:36.055Z,1.40
2022-10-17T10:09:05.499Z,1.30
2022-10-17T10:11:46.327Z,2.05
2022-10-17T10:14:14.682Z,1.40
2022-10-17T10:16:43.477Z,1.20
2022-10-17T10:19:21.151Z,1.50
2022-10-17T10:21:55.689Z,1.40
2022-10-17T10:24:29.625Z,1.40
2022-10-17T10:26:59.479Z,1.30
2022-10-17T10:29:30.813Z,1.35
2022-10-17T10:31:59.726Z,2.03
2022-10-17T10:34:28.831Z,1.25
2022-10-17T10:37:00.560Z,0.93
2022-10-17T10:39:34.243Z,1.67
2022-10-17T10:42:02.408Z,1.48
2022-10-17T10:44:30.656Z,1.15
2022-10-17T10:47:08.565Z,1.38
2022-10-17T10:49:36.705Z,1.30
2022-10-17T10:52:07.170Z,1.10
2022-10-17T10:57:09.067Z,1.42
2022-10-17T10:59:38.418Z,1.17
2022-10-17T11:02:12.700Z,1.58
2022-10-17T11:04:44.635Z,1.60
2022-10-17T11:07:19.362Z,1.60
2022-10-17T11:09:49.824Z,1.25
2022-10-17T11:12:20.134Z,1.20
2022-10-17T11:14:51.009Z,1.00
2022-10-17T11:17:23.979Z,1.17
2022-10-17T11:19:57.457Z,1.05
2022-10-17T11:22:29.482Z,1.27
2022-10-17T11:25:00.808Z,1.20
2022-10-17T11:27:29.396Z,1.10
2022-10-17T11:29:57.339Z,1.10
2022-10-17T11:32:28.661Z,1.20
2022-10-17T11:34:59.301Z,1.05
2022-10-17T11:37:29.630Z,1.35
2022-10-17T11:39:58.933Z,1.10
2022-10-17T11:42:28.779Z,1.08
2022-10-17T11:44:58.934Z,1.00
2022-10-17T11:47:32.933Z,1.38
2022-10-17T11:52:57.135Z,1.33
2022-10-17T11:55:25.963Z,1.40
2022-10-17T11:58:02.389Z,1.30
2022-10-17T12:00:41.671Z,1.30
2022-10-17T12:03:21.892Z,2.22
2022-10-17T12:05:52.163Z,1.40
2022-10-17T12:08:26.952Z,1.40
2022-10-17T12:10:58.004Z,1.40
2022-10-17T12:13:44.967Z,1.00
2022-10-17T12:16:45.761Z,1.13
2022-10-17T12:19:32.568Z,1.10
2022-10-17T12:22:01.405Z,1.40
2022-10-17T12:24:34.518Z,1.27
2022-10-17T12:27:16.972Z,1.20
2022-10-17T12:29:44.554Z,1.38
2022-10-17T12:32:12.784Z,1.30
2022-10-17T12:34:40.445Z,1.30
2022-10-17T12:37:10.813Z,1.10
2022-10-17T12:39:47.016Z,1.05
2022-10-17T12:42:45.734Z,1.48
2022-10-17T12:45:45.423Z,1.10
2022-10-17T12:48:13.004Z,1.23
2022-10-17T12:51:17.708Z,1.20
2022-10-17T12:53:50.811Z,1.30
2022-10-17T12:56:20.004Z,1.20
2022-10-17T12:58:49.749Z,1.05
2022-10-17T13:01:24.081Z,1.45
2022-10-17T13:03:53.282Z,1.33
2022-10-17T13:06:23.170Z,1.33
2022-10-17T13:08:56.148Z,1.20
2022-10-17T13:11:26.729Z,1.50
2022-10-17T13:13:56.957Z,1.20
2022-10-17T13:16:31.958Z,1.20
2022-10-17T13:19:00.079Z,1.30
2022-10-17T13:21:28.828Z,1.63
2022-10-17T13:23:56.826Z,1.25
2022-10-17T13:26:25.318Z,1.13
2022-10-17T13:29:05.024Z,1.40
2022-10-17T13:31:33.815Z,1.40
2022-10-17T13:34:02.164Z,1.10
2022-10-17T13:36:30.316Z,1.10
2022-10-17T13:38:58.700Z,1.20
2022-10-17T13:41:36.820Z,1.20
2022-10-17T13:44:12.062Z,1.33
2022-10-17T13:46:40.645Z,1.50
2022-10-17T13:49:12.600Z,1.08
2022-10-17T13:51:43.337Z,1.25
2022-10-17T13:54:18.650Z,1.40
2022-10-17T13:56:46.307Z,1.13
2022-10-17T13:59:21.032Z,1.20
2022-10-17T14:01:49.752Z,1.30
2022-10-17T14:04:20.504Z,1.10
2022-10-17T14:06:51.409Z,1.45
2022-10-17T14:09:22.810Z,1.25
2022-10-17T14:11:58.235Z,1.67
2022-10-17T14:14:27.335Z,1.52
2022-10-17T14:16:56.442Z,1.25
2022-10-17T14:19:26.496Z,0.90
2022-10-17T14:21:54.878Z,1.20
2022-10-17T14:24:29.732Z,0.98
2022-10-17T14:26:58.907Z,1.00
2022-10-17T14:29:28.761Z,1.20
2022-10-17T14:32:00.951Z,0.90
2022-10-17T14:34:30.521Z,0.90
2022-10-17T14:36:58.178Z,1.05
2022-10-17T14:39:26.961Z,1.10
2022-10-17T14:41:54.879Z,1.10
2022-10-17T14:44:24.036Z,1.08
2022-10-17T14:46:54.900Z,1.27
2022-10-17T14:49:25.486Z,1.20
2022-10-17T14:52:25.276Z,1.20
2022-10-17T14:54:53.142Z,1.23
2022-10-17T14:57:23.774Z,1.30
2022-10-17T14:59:54.201Z,1.30
2022-10-17T15:02:23.357Z,1.25
2022-10-17T15:04:50.844Z,1.10
2022-10-17T15:07:18.888Z,1.30
2022-10-17T15:09:48.248Z,1.42
2022-10-17T15:12:16.987Z,1.35
2022-10-17T15:14:45.073Z,1.40
2022-10-17T15:17:17.020Z,1.20
2022-10-17T15:19:45.923Z,1.40
2022-10-17T15:22:13.571Z,1.38
2022-10-17T15:24:41.120Z,1.50
2022-10-17T15:27:14.941Z,1.70
2022-10-17T15:29:42.423Z,1.50
2022-10-17T15:32:09.982Z,1.50
2022-10-17T15:34:37.765Z,1.30
2022-10-17T15:37:07.202Z,1.90
2022-10-17T15:39:34.930Z,1.58
2022-10-17T15:42:02.495Z,2.00
2022-10-17T15:44:30.340Z,2.15
2022-10-17T15:46:58.223Z,1.15
2022-10-17T15:49:25.774Z,1.50
2022-10-17T15:51:55.397Z,4.93
2022-10-17T15:54:24.412Z,2.55
2022-10-17T15:56:54.316Z,11.93
2022-10-17T15:59:24.093Z,1.90
2022-10-17T16:01:51.729Z,2.42
2022-10-17T16:04:19.143Z,2.13
2022-10-17T16:06:46.701Z,2.05
2022-10-17T16:09:14.213Z,2.42
2022-10-17T16:11:43.726Z,2.20
2022-10-17T16:14:12.117Z,2.35
2022-10-17T16:16:39.861Z,2.80
2022-10-17T16:19:07.474Z,2.58
2022-10-17T16:21:36.486Z,1.90
2022-10-17T16:24:04.864Z,2.10
2022-10-17T16:26:32.639Z,3.75
2022-10-17T16:29:03.067Z,3.42
2022-10-17T16:31:32.381Z,2.80
2022-10-17T16:34:00.583Z,2.85
2022-10-17T16:36:28.182Z,2.72
2022-10-17T16:38:55.809Z,2.03
2022-10-17T16:41:24.730Z,2.40
2022-10-17T16:43:52.774Z,2.75
2022-10-17T16:46:22.439Z,3.10
2022-10-17T16:48:50.065Z,3.00
2022-10-17T16:51:18.915Z,3.13
2022-10-17T16:53:46.797Z,2.95
2022-10-17T16:56:15.354Z,2.70
2022-10-17T16:58:43.411Z,3.28
2022-10-17T17:01:11.701Z,3.38
2022-10-17T17:03:41.290Z,3.55
2022-10-17T17:06:09.511Z,3.47
2022-10-17T17:08:38.195Z,3.95
2022-10-17T17:11:07.653Z,4.78
2022-10-17T17:13:35.369Z,3.72
2022-10-17T17:16:03.623Z,4.28
2022-10-17T17:18:31.720Z,4.10
2022-10-17T17:21:01.508Z,3.30
2022-10-17T17:23:29.594Z,4.32
2022-10-17T17:26:00.492Z,4.22
2022-10-17T17:28:28.480Z,4.05
2022-10-17T17:30:56.418Z,4.18
2022-10-17T17:33:24.186Z,3.92
2022-10-17T17:35:55.261Z,3.80
2022-10-17T17:38:24.379Z,4.20
2022-10-17T17:40:52.142Z,4.47
2022-10-17T17:43:20.113Z,5.85
2022-10-17T17:45:48.166Z,6.32
2022-10-17T17:48:15.738Z,5.10
2022-10-17T17:50:43.844Z,5.20
2022-10-17T17:53:12.380Z,3.92
2022-10-17T17:55:41.542Z,4.63
2022-10-17T17:58:09.165Z,5.45
2022-10-17T18:00:37.104Z,5.22
2022-10-17T18:03:04.743Z,6.22
2022-10-17T18:05:32.465Z,5.65
2022-10-17T18:07:59.989Z,5.72
2022-10-17T18:10:28.913Z,4.78
2022-10-17T18:12:57.711Z,5.03
2022-10-17T18:15:25.180Z,5.03
2022-10-17T18:17:52.732Z,4.80
2022-10-17T18:20:20.381Z,5.10
2022-10-17T18:22:48.094Z,4.47
2022-10-17T18:25:15.841Z,4.63
2022-10-17T18:27:43.506Z,4.32
2022-10-17T18:30:14.080Z,4.50
2022-10-17T18:32:41.933Z,4.85
2022-10-17T18:35:09.921Z,5.18
2022-10-17T18:37:37.682Z,5.50
2022-10-17T18:40:05.669Z,5.10
2022-10-17T18:42:33.423Z,5.63
2022-10-17T18:45:01.267Z,4.90
2022-10-17T18:47:30.904Z,5.22
2022-10-17T18:49:59.297Z,5.55
2022-10-17T18:52:26.975Z,5.75
2022-10-17T18:54:54.823Z,5.30
2022-10-17T18:57:25.256Z,5.43
2022-10-17T18:59:54.248Z,5.28
2022-10-17T19:02:21.826Z,5.07
2022-10-17T19:04:51.288Z,5.20
2022-10-17T19:07:20.111Z,5.20
2022-10-17T19:09:49.270Z,5.43
2022-10-17T19:12:16.901Z,5.38
2022-10-17T19:14:44.599Z,5.80
2022-10-17T19:17:12.413Z,5.53
2022-10-17T19:19:40.644Z,5.53
2022-10-17T19:22:10.349Z,5.30
2022-10-17T19:24:38.075Z,5.80
2022-10-17T19:27:08.136Z,5.50
2022-10-17T19:29:38.563Z,5.47
2022-10-17T19:32:14.096Z,5.43
2022-10-17T19:34:44.682Z,5.60
2022-10-17T19:37:14.339Z,5.72
2022-10-17T19:39:42.361Z,5.60
2022-10-17T19:42:10.038Z,5.78
2022-10-17T19:44:38.123Z,4.80
2022-10-17T19:47:05.666Z,5.15
2022-10-17T19:49:33.658Z,5.68
2022-10-17T19:52:01.395Z,6.15
2022-10-17T19:54:30.364Z,5.03
2022-10-17T19:56:58.760Z,5.55
2022-10-17T19:59:26.539Z,5.63
2022-10-17T20:01:54.726Z,5.70
2022-10-17T20:04:24.024Z,5.20
2022-10-17T20:06:51.874Z,5.57
2022-10-17T20:09:19.474Z,5.72
2022-10-17T20:11:52.685Z,6.00
2022-10-17T20:14:20.321Z,5.60
2022-10-17T20:16:52.581Z,5.87
2022-10-17T20:19:20.739Z,5.13
2022-10-17T20:21:48.399Z,5.77
2022-10-17T20:24:16.918Z,4.97
2022-10-17T20:26:46.847Z,5.60
2022-10-17T20:29:17.052Z,5.40
2022-10-17T20:31:46.242Z,5.00
2022-10-17T20:34:15.990Z,6.37
2022-10-17T20:36:44.201Z,5.20
2022-10-17T20:39:12.789Z,5.00
2022-10-17T20:41:40.409Z,5.43
2022-10-17T20:44:08.491Z,6.27
2022-10-17T20:46:41.700Z,6.23
2022-10-17T20:49:15.103Z,6.03
2022-10-17T20:51:42.684Z,6.20
2022-10-17T20:54:10.356Z,8.30
2022-10-17T20:56:38.506Z,6.27
2022-10-17T20:59:06.982Z,6.90
2022-10-17T21:01:35.256Z,6.13
2022-10-17T21:06:53.396Z,6.37
2022-10-17T21:09:21.025Z,5.30
2022-10-17T21:11:51.237Z,6.30
2022-10-17T21:14:19.315Z,6.63
2022-10-17T21:16:46.828Z,7.07
2022-10-17T21:19:16.042Z,5.87
2022-10-17T21:21:44.826Z,6.50
2022-10-17T21:24:14.338Z,6.20
2022-10-17T21:26:42.468Z,5.87
2022-10-17T21:29:10.425Z,5.63
2022-10-17T21:31:38.738Z,6.10
2022-10-17T21:34:07.702Z,6.03
2022-10-17T21:36:36.513Z,5.20
2022-10-17T21:39:04.684Z,5.90
2022-10-17T21:41:32.484Z,7.03
2022-10-17T21:44:00.604Z,5.97
2022-10-17T21:46:28.261Z,6.67
2022-10-17T21:48:55.921Z,6.70
2022-10-17T21:51:24.487Z,7.47
2022-10-17T21:53:54.289Z,7.47
2022-10-17T21:56:22.836Z,6.90
2022-10-17T21:58:51.105Z,6.57
2022-10-17T22:01:19.866Z,7.00
2022-10-17T22:03:48.270Z,7.07
2022-10-17T22:09:05.814Z,6.70
2022-10-17T22:11:35.864Z,6.63
2022-10-17T22:14:04.651Z,7.00
2022-10-17T22:16:32.184Z,6.13
2022-10-17T22:19:03.268Z,6.63
2022-10-17T22:21:33.696Z,6.97
2022-10-17T22:24:01.969Z,6.80
2022-10-17T22:26:31.990Z,6.80
2022-10-17T22:28:59.490Z,6.43
2022-10-17T22:31:27.087Z,6.73
2022-10-17T22:33:54.525Z,7.03
2022-10-17T22:36:22.244Z,6.70
2022-10-17T22:38:49.709Z,6.63
2022-10-17T22:41:17.213Z,6.93
2022-10-17T22:43:46.113Z,6.43
2022-10-17T22:46:15.834Z,6.50
2022-10-17T22:48:43.579Z,6.13
2022-10-17T22:51:11.095Z,5.97
2022-10-17T22:53:38.593Z,6.30
2022-10-17T22:56:08.082Z,6.50
2022-10-17T22:58:36.244Z,5.87
2022-10-17T23:01:05.674Z,6.50
2022-10-17T23:03:33.332Z,5.83
2022-10-17T23:06:01.124Z,5.50
2022-10-17T23:08:28.916Z,7.17
2022-10-17T23:10:56.388Z,6.07
2022-10-17T23:13:23.869Z,6.10
2022-10-17T23:15:52.461Z,6.50
2022-10-17T23:18:21.900Z,6.00
2022-10-17T23:20:49.473Z,6.70
2022-10-17T23:23:17.431Z,6.90
2022-10-17T23:25:45.059Z,5.93
2022-10-17T23:28:12.921Z,6.30
2022-10-17T23:30:40.530Z,6.90
2022-10-17T23:33:08.453Z,5.57
2022-10-17T23:35:37.245Z,6.73
2022-10-17T23:38:04.684Z,6.43
2022-10-17T23:40:32.100Z,6.50
2022-10-17T23:42:59.527Z,6.03
2022-10-17T23:45:27.007Z,6.40
2022-10-17T23:47:54.482Z,6.17
2022-10-17T23:50:21.964Z,6.83
2022-10-17T23:52:50.799Z,6.40
2022-10-17T23:55:18.373Z,6.27
2022-10-17T23:57:45.846Z,5.77
